Time;durP1;ratioP1;P1;durP2;ratioP2;P2;SDS_P1;SDS_P2;PMS_P1;PMS_P2;Temp;Humidity;BMP_temperature;BMP_pressure;BME280_temperature;BME280_humidity;BME280_pressure;Samples;Min_cycle;Max_cycle;Signal;HPM_P1;HPM_P2
2021/01/12 00:02:04;;;;;;;15.85;10.98;;;;;;;;;;5051960;28;20043;-80
2021/01/12 00:04:33;;;;;;;20.92;10.80;;;;;;;;;;5053624;28;20021;-80
2021/01/12 00:06:59;;;;;;;17.30;11.40;;;;;;;;;;5051372;28;20025;-80
2021/01/12 00:09:26;;;;;;;12.93;10.18;;;;;;;;;;5051804;28;20477;-82
2021/01/12 00:11:55;;;;;;;15.65;11.10;;;;;;;;;;5051673;28;20017;-81
2021/01/12 00:14:33;;;;;;;19.25;11.60;;;;;;;;;;5053430;28;20021;-81
2021/01/12 00:17:04;;;;;;;19.13;11.63;;;;;;;;;;5052927;28;20017;-81
2021/01/12 00:19:30;;;;;;;17.30;10.57;;;;;;;;;;5053099;28;20013;-81
2021/01/12 00:21:56;;;;;;;18.05;10.55;;;;;;;;;;5052514;28;20032;-81
2021/01/12 00:24:23;;;;;;;13.75;9.45;;;;;;;;;;5051754;28;20020;-81
2021/01/12 00:26:50;;;;;;;17.38;11.27;;;;;;;;;;5051415;28;20453;-81
2021/01/12 00:29:16;;;;;;;16.52;10.40;;;;;;;;;;5051551;28;20033;-81
2021/01/12 00:31:43;;;;;;;19.92;11.40;;;;;;;;;;5051299;28;20480;-81
2021/01/12 00:34:09;;;;;;;16.08;10.32;;;;;;;;;;5051587;28;20459;-80
2021/01/12 00:36:45;;;;;;;15.70;10.35;;;;;;;;;;5051426;28;20021;-80
2021/01/12 00:39:11;;;;;;;19.77;13.57;;;;;;;;;;5051181;28;20035;-81
2021/01/12 00:41:37;;;;;;;19.35;12.98;;;;;;;;;;5052239;28;20410;-80
2021/01/12 00:44:06;;;;;;;21.38;13.57;;;;;;;;;;5052716;28;20032;-80
2021/01/12 00:46:34;;;;;;;21.75;13.80;;;;;;;;;;5051029;28;20342;-81
2021/01/12 00:49:00;;;;;;;16.33;10.38;;;;;;;;;;5050981;28;20017;-81
2021/01/12 00:51:33;;;;;;;17.73;13.07;;;;;;;;;;5052561;28;20048;-80
2021/01/12 00:53:59;;;;;;;19.30;13.75;;;;;;;;;;5052321;28;20013;-81
2021/01/12 00:56:25;;;;;;;18.77;14.80;;;;;;;;;;5051115;28;20025;-81
2021/01/12 00:58:51;;;;;;;23.35;16.13;;;;;;;;;;5050959;28;20071;-81
2021/01/12 01:01:17;;;;;;;20.95;16.20;;;;;;;;;;5051084;28;20051;-81
2021/01/12 01:03:43;;;;;;;24.75;17.15;;;;;;;;;;5051910;28;20021;-80
2021/01/12 01:06:09;;;;;;;23.40;16.70;;;;;;;;;;5051094;28;20389;-80
2021/01/12 01:08:35;;;;;;;24.60;16.95;;;;;;;;;;5050785;28;20036;-80
2021/01/12 01:11:04;;;;;;;16.85;12.07;;;;;;;;;;5050719;28;20033;-80
2021/01/12 01:13:30;;;;;;;21.83;14.48;;;;;;;;;;5052536;28;20442;-80
2021/01/12 01:15:56;;;;;;;19.27;14.27;;;;;;;;;;5050694;28;20087;-81
2021/01/12 01:18:22;;;;;;;19.83;13.35;;;;;;;;;;5050910;28;20021;-80
2021/01/12 01:20:49;;;;;;;20.27;13.05;;;;;;;;;;5050701;28;20025;-80
2021/01/12 01:23:15;;;;;;;17.67;13.32;;;;;;;;;;5050786;28;20025;-80
2021/01/12 01:25:41;;;;;;;19.05;13.40;;;;;;;;;;5050824;28;20055;-80
2021/01/12 01:28:07;;;;;;;21.08;13.68;;;;;;;;;;5050626;28;20013;-80
2021/01/12 01:30:33;;;;;;;18.42;13.68;;;;;;;;;;5050708;28;20508;-80
2021/01/12 01:32:59;;;;;;;18.50;12.43;;;;;;;;;;5051577;28;20017;-81
2021/01/12 01:35:25;;;;;;;17.17;11.93;;;;;;;;;;5052953;28;20025;-81
2021/01/12 01:37:51;;;;;;;18.20;12.32;;;;;;;;;;5055577;28;20017;-81
2021/01/12 01:40:24;;;;;;;19.10;14.60;;;;;;;;;;5054736;28;20027;-80
2021/01/12 01:42:51;;;;;;;19.73;14.35;;;;;;;;;;5054035;28;20056;-80
2021/01/12 01:45:17;;;;;;;17.83;12.65;;;;;;;;;;5054495;28;20036;-81
2021/01/12 01:47:44;;;;;;;19.15;13.73;;;;;;;;;;5056002;28;20032;-80
2021/01/12 01:50:11;;;;;;;22.10;14.60;;;;;;;;;;5054464;28;20025;-81
2021/01/12 01:52:38;;;;;;;17.23;14.95;;;;;;;;;;5054557;28;20115;-81
2021/01/12 01:55:05;;;;;;;21.85;15.40;;;;;;;;;;5054207;28;20404;-80
2021/01/12 01:57:31;;;;;;;19.55;14.45;;;;;;;;;;5054447;28;20446;-80
2021/01/12 01:59:57;;;;;;;21.20;15.45;;;;;;;;;;5055540;28;20480;-81
2021/01/12 02:02:23;;;;;;;21.00;13.85;;;;;;;;;;5054292;28;20021;-81
2021/01/12 02:04:51;;;;;;;18.00;13.15;;;;;;;;;;5055612;28;20071;-81
2021/01/12 02:07:17;;;;;;;18.45;13.95;;;;;;;;;;5055598;28;20020;-81
2021/01/12 02:09:45;;;;;;;17.77;13.20;;;;;;;;;;5055693;28;20035;-81
2021/01/12 02:12:31;;;;;;;16.73;12.35;;;;;;;;;;5053707;28;20467;-81
2021/01/12 02:14:57;;;;;;;20.73;14.13;;;;;;;;;;5053477;28;20020;-80
2021/01/12 02:17:29;;;;;;;15.10;10.52;;;;;;;;;;5054136;28;20113;-80
2021/01/12 02:19:55;;;;;;;20.50;12.90;;;;;;;;;;5053779;28;20029;-81
2021/01/12 02:22:22;;;;;;;16.08;10.68;;;;;;;;;;5053842;28;20028;-81
2021/01/12 02:24:49;;;;;;;16.42;11.48;;;;;;;;;;5053776;28;20017;-79
2021/01/12 02:27:21;;;;;;;16.20;11.10;;;;;;;;;;5053910;28;20049;-80
2021/01/12 02:29:49;;;;;;;17.27;10.73;;;;;;;;;;5054988;28;20057;-80
2021/01/12 02:32:16;;;;;;;17.08;11.13;;;;;;;;;;5053745;28;20021;-80
2021/01/12 02:34:44;;;;;;;17.95;10.90;;;;;;;;;;5053766;28;20017;-81
2021/01/12 02:37:10;;;;;;;20.15;11.07;;;;;;;;;;5053219;28;20368;-80
2021/01/12 02:39:36;;;;;;;16.63;9.70;;;;;;;;;;5055011;28;20025;-80
2021/01/12 02:42:12;;;;;;;15.25;10.70;;;;;;;;;;5053271;28;20370;-81
2021/01/12 02:44:38;;;;;;;19.85;10.60;;;;;;;;;;5054934;28;20017;-80
2021/01/12 02:47:04;;;;;;;18.65;10.57;;;;;;;;;;5053312;28;20091;-81
2021/01/12 02:49:30;;;;;;;15.18;9.43;;;;;;;;;;5053382;28;20052;-81
2021/01/12 02:51:56;;;;;;;16.20;9.10;;;;;;;;;;5054472;28;20151;-81
2021/01/12 02:54:22;;;;;;;14.95;9.00;;;;;;;;;;5053287;28;20047;-81
2021/01/12 02:56:48;;;;;;;15.90;9.63;;;;;;;;;;5053103;28;20017;-81
2021/01/12 02:59:14;;;;;;;19.42;9.55;;;;;;;;;;5053116;28;20458;-81
2021/01/12 03:01:40;;;;;;;15.57;9.25;;;;;;;;;;5053006;28;20025;-81
2021/01/12 03:04:06;;;;;;;13.38;8.48;;;;;;;;;;5052707;28;20020;-81
2021/01/12 03:06:32;;;;;;;12.93;8.27;;;;;;;;;;5053113;28;20074;-81
2021/01/12 03:08:58;;;;;;;15.98;8.88;;;;;;;;;;5052783;28;20373;-81
2021/01/12 03:11:25;;;;;;;11.30;8.30;;;;;;;;;;5053087;28;20025;-82
2021/01/12 03:13:51;;;;;;;13.90;8.35;;;;;;;;;;5052683;28;20013;-80
2021/01/12 03:16:17;;;;;;;11.40;7.88;;;;;;;;;;5052957;28;20533;-80
2021/01/12 03:18:43;;;;;;;13.13;8.65;;;;;;;;;;5052892;28;20025;-80
2021/01/12 03:21:09;;;;;;;15.52;9.15;;;;;;;;;;5052735;28;20017;-80
2021/01/12 03:23:35;;;;;;;12.48;8.60;;;;;;;;;;5054052;28;20021;-80
2021/01/12 03:26:01;;;;;;;11.05;6.57;;;;;;;;;;5053895;28;20013;-79
2021/01/12 03:28:27;;;;;;;15.25;9.80;;;;;;;;;;5052717;28;20434;-80
2021/01/12 03:30:53;;;;;;;13.32;8.73;;;;;;;;;;5052519;28;20025;-80
2021/01/12 03:33:19;;;;;;;12.35;8.35;;;;;;;;;;5052801;28;20017;-80
2021/01/12 03:35:45;;;;;;;15.25;8.13;;;;;;;;;;5052721;28;20060;-80
2021/01/12 03:38:11;;;;;;;10.20;6.78;;;;;;;;;;5052481;28;20032;-79
2021/01/12 03:40:37;;;;;;;11.65;7.50;;;;;;;;;;5052580;28;20096;-80
2021/01/12 03:43:03;;;;;;;12.15;7.30;;;;;;;;;;5053396;28;20097;-79
2021/01/12 03:45:29;;;;;;;12.55;8.35;;;;;;;;;;5052584;28;20155;-78
2021/01/12 03:47:55;;;;;;;11.90;5.95;;;;;;;;;;5052363;28;20527;-79
2021/01/12 03:50:21;;;;;;;10.02;6.07;;;;;;;;;;5052206;28;20189;-80
2021/01/12 03:52:47;;;;;;;11.00;5.55;;;;;;;;;;5052303;28;20129;-79
2021/01/12 03:55:13;;;;;;;10.35;6.07;;;;;;;;;;5051909;28;20025;-79
2021/01/12 03:57:39;;;;;;;11.52;6.10;;;;;;;;;;5051685;28;20528;-80
2021/01/12 04:00:05;;;;;;;9.25;5.72;;;;;;;;;;5051833;28;20483;-80
2021/01/12 04:02:31;;;;;;;8.85;5.15;;;;;;;;;;5052083;28;20448;-80
2021/01/12 04:04:57;;;;;;;9.20;4.95;;;;;;;;;;5051866;28;20061;-80
2021/01/12 04:07:24;;;;;;;7.57;4.68;;;;;;;;;;5052049;28;20017;-80
2021/01/12 04:09:50;;;;;;;9.68;4.95;;;;;;;;;;5053240;28;20025;-80
2021/01/12 04:12:16;;;;;;;11.07;5.68;;;;;;;;;;5052983;28;20063;-79
2021/01/12 04:14:42;;;;;;;12.05;4.53;;;;;;;;;;5051784;28;20020;-80
2021/01/12 04:17:08;;;;;;;10.23;4.72;;;;;;;;;;5051787;28;20013;-80
2021/01/12 04:19:34;;;;;;;7.63;3.85;;;;;;;;;;5051771;28;20456;-80
2021/01/12 04:22:00;;;;;;;11.60;4.82;;;;;;;;;;5051477;28;20094;-80
2021/01/12 04:24:26;;;;;;;11.48;4.40;;;;;;;;;;5051771;28;20445;-80
2021/01/12 04:26:52;;;;;;;9.75;4.40;;;;;;;;;;5051633;28;20032;-80
2021/01/12 04:29:18;;;;;;;8.55;4.13;;;;;;;;;;5051404;28;20024;-80
2021/01/12 04:31:44;;;;;;;9.63;4.90;;;;;;;;;;5051699;28;20396;-80
2021/01/12 04:34:10;;;;;;;7.75;3.90;;;;;;;;;;5052582;28;20017;-79
2021/01/12 04:36:36;;;;;;;8.90;5.20;;;;;;;;;;5051437;28;20021;-79
2021/01/12 04:39:03;;;;;;;6.45;3.63;;;;;;;;;;5051284;28;20028;-79
2021/01/12 04:41:29;;;;;;;10.20;5.38;;;;;;;;;;5052171;28;20052;-80
2021/01/12 04:43:55;;;;;;;12.88;6.40;;;;;;;;;;5051421;28;20029;-80
2021/01/12 04:46:21;;;;;;;10.55;4.57;;;;;;;;;;5051354;28;20040;-79
2021/01/12 04:48:49;;;;;;;10.35;5.80;;;;;;;;;;5051342;28;20087;-80
2021/01/12 04:51:15;;;;;;;10.70;5.93;;;;;;;;;;5052120;28;20028;-80
2021/01/12 04:53:48;;;;;;;12.95;6.18;;;;;;;;;;5051252;28;20373;-80
2021/01/12 04:56:18;;;;;;;11.65;4.35;;;;;;;;;;5050566;28;20018;-81
2021/01/12 04:58:45;;;;;;;10.15;5.90;;;;;;;;;;5050820;28;20025;-80
2021/01/12 05:01:16;;;;;;;9.88;4.05;;;;;;;;;;5051888;28;20017;-81
2021/01/12 05:03:42;;;;;;;8.27;4.70;;;;;;;;;;5050972;28;20051;-81
2021/01/12 05:06:09;;;;;;;10.60;4.60;;;;;;;;;;5050741;28;20024;-80
2021/01/12 05:08:35;;;;;;;8.25;4.93;;;;;;;;;;5050533;28;20021;-81
2021/01/12 05:11:01;;;;;;;10.10;5.60;;;;;;;;;;5050207;28;20509;-81
2021/01/12 05:13:30;;;;;;;8.77;4.40;;;;;;;;;;5050940;28;20044;-81
2021/01/12 05:15:58;;;;;;;13.68;5.63;;;;;;;;;;5051027;28;20108;-81
2021/01/12 05:18:24;;;;;;;8.68;6.03;;;;;;;;;;5052530;28;20013;-81
2021/01/12 05:20:51;;;;;;;8.10;4.90;;;;;;;;;;5051007;28;20067;-81
2021/01/12 05:23:22;;;;;;;14.35;5.40;;;;;;;;;;5050561;28;20492;-81
2021/01/12 05:25:49;;;;;;;8.82;5.03;;;;;;;;;;5050949;28;20040;-81
2021/01/12 05:28:17;;;;;;;7.65;4.32;;;;;;;;;;5050611;28;20452;-81
2021/01/12 05:30:44;;;;;;;15.55;6.18;;;;;;;;;;5050781;28;20035;-80
2021/01/12 05:33:16;;;;;;;13.55;6.53;;;;;;;;;;5050543;28;20025;-80
2021/01/12 05:35:45;;;;;;;6.97;4.70;;;;;;;;;;5052051;28;20017;-80
2021/01/12 05:38:11;;;;;;;11.10;6.60;;;;;;;;;;5050514;28;20021;-81
2021/01/12 05:40:38;;;;;;;10.40;6.10;;;;;;;;;;5051921;28;20018;-80
2021/01/12 05:43:05;;;;;;;11.40;5.82;;;;;;;;;;5050276;28;20077;-81
2021/01/12 05:45:38;;;;;;;10.38;5.70;;;;;;;;;;5050704;28;20021;-80
2021/01/12 05:48:04;;;;;;;11.82;5.80;;;;;;;;;;5050405;28;20035;-80
2021/01/12 05:50:31;;;;;;;15.90;8.30;;;;;;;;;;5050692;28;20457;-81
2021/01/12 05:53:05;;;;;;;14.48;7.00;;;;;;;;;;5052050;28;20099;-80
2021/01/12 05:55:35;;;;;;;10.40;5.40;;;;;;;;;;5050686;28;20081;-81
2021/01/12 05:58:10;;;;;;;6.00;3.35;;;;;;;;;;5050327;28;20028;-80
2021/01/12 06:00:37;;;;;;;13.95;7.38;;;;;;;;;;5051860;28;20043;-80
2021/01/12 06:03:07;;;;;;;9.30;5.82;;;;;;;;;;5050319;28;20100;-81
2021/01/12 06:05:34;;;;;;;10.13;5.55;;;;;;;;;;5050531;28;20017;-81
2021/01/12 06:08:00;;;;;;;8.27;2.95;;;;;;;;;;5050535;28;20032;-81
2021/01/12 06:10:26;;;;;;;6.20;3.20;;;;;;;;;;5050382;28;20472;-81
2021/01/12 06:12:56;;;;;;;6.72;3.53;;;;;;;;;;5050535;28;20047;-80
2021/01/12 06:15:27;;;;;;;8.52;4.78;;;;;;;;;;5050287;28;20029;-80
2021/01/12 06:17:52;;;;;;;;;;;;;;;;;;5052331;28;20021;-81
2021/01/12 06:20:21;;;;;;;8.45;4.43;;;;;;;;;;5050769;28;19907;-80
2021/01/12 06:22:51;;;;;;;7.50;4.75;;;;;;;;;;5054023;28;20023;-80
2021/01/12 06:25:18;;;;;;;10.35;5.47;;;;;;;;;;5055066;28;20017;-79
2021/01/12 06:27:44;;;;;;;9.93;6.32;;;;;;;;;;5055218;28;20021;-79
2021/01/12 06:30:11;;;;;;;13.95;7.40;;;;;;;;;;5053720;28;20021;-80
2021/01/12 06:32:37;;;;;;;11.60;6.60;;;;;;;;;;5053953;28;20021;-80
2021/01/12 06:35:05;;;;;;;10.82;5.68;;;;;;;;;;5054924;28;20066;-80
2021/01/12 06:37:35;;;;;;;8.43;5.25;;;;;;;;;;5053735;28;20024;-81
2021/01/12 06:40:03;;;;;;;8.82;4.85;;;;;;;;;;5054823;28;20459;-79
2021/01/12 06:42:30;;;;;;;8.27;4.50;;;;;;;;;;5053454;28;20048;-80
2021/01/12 06:44:57;;;;;;;9.02;3.70;;;;;;;;;;5054898;28;20039;-79
2021/01/12 06:47:24;;;;;;;8.00;4.00;;;;;;;;;;5053360;28;20242;-80
2021/01/12 06:49:50;;;;;;;9.05;3.50;;;;;;;;;;5054807;28;20025;-80
2021/01/12 06:52:16;;;;;;;7.28;4.38;;;;;;;;;;5053290;28;20057;-80
2021/01/12 06:54:48;;;;;;;8.73;4.75;;;;;;;;;;5054769;28;20017;-80
2021/01/12 06:57:15;;;;;;;6.50;3.63;;;;;;;;;;5053129;28;20135;-80
2021/01/12 06:59:44;;;;;;;6.97;3.28;;;;;;;;;;5053318;28;20086;-79
2021/01/12 07:02:30;;;;;;;6.55;2.40;;;;;;;;;;5053113;28;20021;-80
2021/01/12 07:04:57;;;;;;;10.73;4.55;;;;;;;;;;5054522;28;20044;-79
2021/01/12 07:07:24;;;;;;;10.13;6.60;;;;;;;;;;5052953;28;20021;-80
2021/01/12 07:09:54;;;;;;;8.32;4.28;;;;;;;;;;5053015;28;20025;-80
2021/01/12 07:12:21;;;;;;;7.85;3.60;;;;;;;;;;5052840;28;20453;-79
2021/01/12 07:14:47;;;;;;;9.25;3.25;;;;;;;;;;5052828;28;20017;-80
2021/01/12 07:17:13;;;;;;;6.13;3.90;;;;;;;;;;5052631;28;20025;-78
2021/01/12 07:19:40;;;;;;;17.17;13.15;;;;;;;;;;5052678;28;20017;-79
2021/01/12 07:22:21;;;;;;;8.18;3.15;;;;;;;;;;5054049;28;20009;-79
2021/01/12 07:24:51;;;;;;;8.55;3.00;;;;;;;;;;5060269;28;20449;-80
2021/01/12 07:27:18;;;;;;;5.32;2.97;;;;;;;;;;5060077;28;20044;-77
2021/01/12 07:29:47;;;;;;;10.25;4.93;;;;;;;;;;5069263;28;20020;-78
2021/01/12 07:32:24;;;;;;;15.70;4.57;;;;;;;;;;5053838;28;20028;-78
2021/01/12 07:34:50;;;;;;;8.73;4.32;;;;;;;;;;5052490;28;20351;-78
2021/01/12 07:37:16;;;;;;;13.05;6.63;;;;;;;;;;5052194;28;20028;-78
2021/01/12 07:39:42;;;;;;;3.38;1.70;;;;;;;;;;5053422;28;20134;-79
2021/01/12 07:42:11;;;;;;;4.57;1.80;;;;;;;;;;5051803;28;20037;-79
2021/01/12 07:44:37;;;;;;;7.90;4.15;;;;;;;;;;5052313;28;20029;-78
2021/01/12 07:47:05;;;;;;;4.93;2.67;;;;;;;;;;5051700;28;20392;-79
2021/01/12 07:49:31;;;;;;;9.27;3.15;;;;;;;;;;5052185;28;20705;-79
2021/01/12 07:51:57;;;;;;;6.95;3.13;;;;;;;;;;5052201;28;20021;-78
2021/01/12 07:54:25;;;;;;;8.40;5.53;;;;;;;;;;5051903;28;20360;-77
2021/01/12 07:56:54;;;;;;;9.88;5.00;;;;;;;;;;5051931;28;20013;-78
2021/01/12 07:59:22;;;;;;;7.53;3.53;;;;;;;;;;5051789;28;20056;-78
2021/01/12 08:01:49;;;;;;;6.57;3.13;;;;;;;;;;5052128;28;20545;-78
2021/01/12 08:04:15;;;;;;;6.75;3.20;;;;;;;;;;5051590;28;20021;-78
2021/01/12 08:06:42;;;;;;;10.18;4.68;;;;;;;;;;5051992;28;20044;-76
2021/01/12 08:09:09;;;;;;;7.68;5.10;;;;;;;;;;5051363;28;20036;-77
2021/01/12 08:11:36;;;;;;;8.65;3.58;;;;;;;;;;5051778;28;20040;-77
2021/01/12 08:14:06;;;;;;;10.52;7.18;;;;;;;;;;5053117;28;20453;-77
2021/01/12 08:16:33;;;;;;;11.20;5.20;;;;;;;;;;5051678;28;20120;-77
2021/01/12 08:18:59;;;;;;;10.90;5.85;;;;;;;;;;5051596;28;20112;-77
2021/01/12 08:21:25;;;;;;;8.93;5.72;;;;;;;;;;5051376;28;20024;-77
2021/01/12 08:24:06;;;;;;;9.65;4.88;;;;;;;;;;5071380;28;20021;-80
2021/01/12 08:26:32;;;;;;;9.77;4.95;;;;;;;;;;5064995;28;20491;-77
2021/01/12 08:29:00;;;;;;;5.78;3.03;;;;;;;;;;5060352;28;20023;-78
2021/01/12 08:31:28;;;;;;;7.85;3.13;;;;;;;;;;5062690;28;20025;-78
2021/01/12 08:33:59;;;;;;;5.72;3.17;;;;;;;;;;5060016;28;20104;-78
2021/01/12 08:36:30;;;;;;;8.10;3.78;;;;;;;;;;5058530;28;20079;-78
2021/01/12 08:38:57;;;;;;;7.10;3.15;;;;;;;;;;5061747;28;20016;-78
2021/01/12 08:41:24;;;;;;;5.13;2.70;;;;;;;;;;5058689;28;20174;-78
2021/01/12 08:43:52;;;;;;;10.60;3.65;;;;;;;;;;5061203;28;20024;-77
2021/01/12 08:46:18;;;;;;;7.10;2.80;;;;;;;;;;5053068;28;20096;-77
2021/01/12 08:48:48;;;;;;;7.30;3.15;;;;;;;;;;5050935;28;20017;-77
2021/01/12 08:51:15;;;;;;;5.43;2.67;;;;;;;;;;5052082;28;20025;-77
2021/01/12 08:53:41;;;;;;;3.53;1.80;;;;;;;;;;5052123;28;20417;-77
2021/01/12 08:56:08;;;;;;;5.72;2.05;;;;;;;;;;5059781;28;20044;-78
2021/01/12 08:58:35;;;;;;;6.00;2.95;;;;;;;;;;5061907;28;20025;-77
2021/01/12 09:01:03;;;;;;;7.45;2.80;;;;;;;;;;5059084;28;20024;-77
2021/01/12 09:03:30;;;;;;;7.78;2.83;;;;;;;;;;5061632;28;20040;-78
2021/01/12 09:05:56;;;;;;;7.85;2.33;;;;;;;;;;5070632;28;20104;-78
2021/01/12 09:08:22;;;;;;;7.03;2.90;;;;;;;;;;5070566;28;20052;-77
2021/01/12 09:10:49;;;;;;;17.90;7.63;;;;;;;;;;5070577;28;20028;-78
2021/01/12 09:13:15;;;;;;;14.05;6.55;;;;;;;;;;5070382;28;20037;-77
2021/01/12 09:15:43;;;;;;;10.90;3.30;;;;;;;;;;5071773;28;20051;-77
2021/01/12 09:18:19;;;;;;;7.78;3.13;;;;;;;;;;5070286;28;20021;-77
2021/01/12 09:20:52;;;;;;;6.00;2.70;;;;;;;;;;5071826;28;20111;-78
2021/01/12 09:23:18;;;;;;;4.53;1.88;;;;;;;;;;5054624;28;20035;-78
2021/01/12 09:25:50;;;;;;;7.18;1.98;;;;;;;;;;5050282;28;20027;-77
2021/01/12 09:28:18;;;;;;;5.05;1.83;;;;;;;;;;5050063;28;20024;-77
2021/01/12 09:30:45;;;;;;;7.70;2.60;;;;;;;;;;5051503;28;20029;-78
2021/01/12 09:33:22;;;;;;;4.72;1.55;;;;;;;;;;5050046;28;20535;-77
2021/01/12 09:35:49;;;;;;;10.50;1.92;;;;;;;;;;5050505;28;20052;-78
2021/01/12 09:38:15;;;;;;;5.13;2.10;;;;;;;;;;5051587;28;20017;-77
2021/01/12 09:40:41;;;;;;;6.28;1.70;;;;;;;;;;5050448;28;20067;-77
2021/01/12 09:43:07;;;;;;;11.02;1.73;;;;;;;;;;5050765;28;20099;-78
2021/01/12 09:45:34;;;;;;;7.05;1.08;;;;;;;;;;5050705;28;20017;-78
2021/01/12 09:48:01;;;;;;;4.93;1.42;;;;;;;;;;5052282;28;20013;-80
2021/01/12 09:50:27;;;;;;;6.75;1.58;;;;;;;;;;5051333;28;20036;-80
2021/01/12 09:52:53;;;;;;;5.88;2.13;;;;;;;;;;5052168;28;20049;-80
2021/01/12 09:55:19;;;;;;;6.57;1.38;;;;;;;;;;5052759;28;20404;-79
2021/01/12 09:57:47;;;;;;;7.18;1.90;;;;;;;;;;5055974;28;20029;-79
2021/01/12 10:00:14;;;;;;;9.38;2.40;;;;;;;;;;5054651;28;20031;-79
2021/01/12 10:02:40;;;;;;;6.40;2.50;;;;;;;;;;5056680;28;20025;-79
2021/01/12 10:05:06;;;;;;;5.88;1.95;;;;;;;;;;5054519;28;20017;-77
2021/01/12 10:07:32;;;;;;;9.57;2.40;;;;;;;;;;5053619;28;20032;-77
2021/01/12 10:09:58;;;;;;;9.95;2.20;;;;;;;;;;5058414;28;20033;-76
2021/01/12 10:12:24;;;;;;;6.43;1.38;;;;;;;;;;5056567;28;20476;-77
2021/01/12 10:14:50;;;;;;;7.80;1.50;;;;;;;;;;5057152;28;20025;-76
2021/01/12 10:17:16;;;;;;;10.25;1.80;;;;;;;;;;5053794;28;20024;-77
2021/01/12 10:19:42;;;;;;;10.65;2.90;;;;;;;;;;5053833;28;20079;-77
2021/01/12 10:22:08;;;;;;;5.78;1.65;;;;;;;;;;5053816;28;20111;-76
2021/01/12 10:24:34;;;;;;;5.72;1.17;;;;;;;;;;5053399;28;20101;-78
2021/01/12 10:27:01;;;;;;;5.00;1.20;;;;;;;;;;5055256;28;20013;-77
2021/01/12 10:29:29;;;;;;;6.00;1.08;;;;;;;;;;5053540;28;20017;-77
2021/01/12 10:31:55;;;;;;;6.35;1.63;;;;;;;;;;5055126;28;20009;-77
2021/01/12 10:34:21;;;;;;;5.80;1.05;;;;;;;;;;5053579;28;20511;-77
2021/01/12 10:36:50;;;;;;;6.40;1.00;;;;;;;;;;5053741;28;20017;-77
2021/01/12 10:39:17;;;;;;;2.13;0.70;;;;;;;;;;5053459;28;20040;-77
2021/01/12 10:41:43;;;;;;;8.25;1.23;;;;;;;;;;5054834;28;20017;-77
2021/01/12 10:44:09;;;;;;;4.30;1.30;;;;;;;;;;5053919;28;20025;-77
2021/01/12 10:46:35;;;;;;;2.03;0.80;;;;;;;;;;5053371;28;20017;-77
2021/01/12 10:49:01;;;;;;;1.90;0.73;;;;;;;;;;5054900;28;20092;-76
2021/01/12 10:51:27;;;;;;;4.55;1.10;;;;;;;;;;5053219;28;20024;-76
2021/01/12 10:53:53;;;;;;;6.97;1.02;;;;;;;;;;5053436;28;20025;-76
2021/01/12 10:56:19;;;;;;;4.93;0.93;;;;;;;;;;5054619;28;20017;-76
2021/01/12 10:58:45;;;;;;;3.72;0.95;;;;;;;;;;5053183;28;20021;-77
2021/01/12 11:01:15;;;;;;;6.22;1.13;;;;;;;;;;5054206;28;20470;-77
2021/01/12 11:03:41;;;;;;;3.78;1.30;;;;;;;;;;5053028;28;20178;-77
2021/01/12 11:06:07;;;;;;;9.18;0.98;;;;;;;;;;5053025;28;20079;-77
2021/01/12 11:08:34;;;;;;;2.08;0.75;;;;;;;;;;5051874;28;20434;-77
2021/01/12 11:11:01;;;;;;;5.15;0.80;;;;;;;;;;5053170;28;20028;-78
2021/01/12 11:13:27;;;;;;;2.53;0.60;;;;;;;;;;5054229;28;20013;-77
2021/01/12 11:15:56;;;;;;;4.20;0.75;;;;;;;;;;5054316;28;20450;-77
2021/01/12 11:18:26;;;;;;;6.28;1.05;;;;;;;;;;5052866;28;20060;-77
2021/01/12 11:20:53;;;;;;;5.17;0.90;;;;;;;;;;5051847;28;20033;-76
2021/01/12 11:23:19;;;;;;;5.68;1.05;;;;;;;;;;5052623;28;20425;-76
2021/01/12 11:25:45;;;;;;;2.22;0.65;;;;;;;;;;5064308;28;20016;-78
2021/01/12 11:28:11;;;;;;;3.95;0.50;;;;;;;;;;5075435;28;20043;-79
2021/01/12 11:30:37;;;;;;;4.32;0.90;;;;;;;;;;5073468;28;20036;-78
2021/01/12 11:33:06;;;;;;;7.53;1.35;;;;;;;;;;5075005;28;20028;-80
2021/01/12 11:35:33;;;;;;;4.03;1.05;;;;;;;;;;5074009;28;20024;-79
2021/01/12 11:37:59;;;;;;;4.68;1.02;;;;;;;;;;5073694;28;20020;-78
2021/01/12 11:40:25;;;;;;;6.85;0.95;;;;;;;;;;5073739;28;20025;-80
2021/01/12 11:42:51;;;;;;;29.80;16.55;;;;;;;;;;5074598;28;20041;-79
2021/01/12 11:45:17;;;;;;;127.68;73.95;;;;;;;;;;5072942;28;20453;-78
2021/01/12 11:47:44;;;;;;;14.23;5.30;;;;;;;;;;5073561;28;20031;-78
2021/01/12 11:50:10;;;;;;;10.48;1.25;;;;;;;;;;5072433;28;20028;-79
2021/01/12 11:52:37;;;;;;;6.70;0.93;;;;;;;;;;5072394;28;20024;-78
2021/01/12 11:55:04;;;;;;;6.10;1.20;;;;;;;;;;5073091;28;20483;-77
2021/01/12 11:57:30;;;;;;;7.07;1.20;;;;;;;;;;5074317;28;20023;-78
2021/01/12 11:59:56;;;;;;;5.28;0.90;;;;;;;;;;5073547;28;20103;-79
2021/01/12 12:02:23;;;;;;;6.38;1.45;;;;;;;;;;5074167;28;20039;-78
2021/01/12 12:04:49;;;;;;;2.65;0.80;;;;;;;;;;5072199;28;20020;-78
2021/01/12 12:07:15;;;;;;;8.40;1.40;;;;;;;;;;5072658;28;20020;-76
2021/01/12 12:09:41;;;;;;;6.82;1.00;;;;;;;;;;5073723;28;20028;-79
2021/01/12 12:12:09;;;;;;;4.40;0.80;;;;;;;;;;5072696;28;20082;-81
2021/01/12 12:14:36;;;;;;;7.70;1.27;;;;;;;;;;5072019;28;20107;-82
2021/01/12 12:17:02;;;;;;;4.47;0.98;;;;;;;;;;5071780;28;20024;-79
2021/01/12 12:19:30;;;;;;;8.73;1.30;;;;;;;;;;5071285;28;20047;-79
2021/01/12 12:21:57;;;;;;;10.77;1.20;;;;;;;;;;5067659;28;20013;-78
2021/01/12 12:24:24;;;;;;;5.78;1.30;;;;;;;;;;5052866;28;20021;-79
2021/01/12 12:26:51;;;;;;;6.15;1.00;;;;;;;;;;5052810;28;20028;-78
2021/01/12 12:29:17;;;;;;;4.13;1.05;;;;;;;;;;5051499;28;20021;-77
2021/01/12 12:31:44;;;;;;;4.90;0.73;;;;;;;;;;5051348;28;20044;-78
2021/01/12 12:34:10;;;;;;;5.75;1.13;;;;;;;;;;5051576;28;20013;-79
2021/01/12 12:36:36;;;;;;;10.05;1.65;;;;;;;;;;5051248;28;20021;-78
2021/01/12 12:39:03;;;;;;;5.05;0.80;;;;;;;;;;5052797;28;20013;-78
2021/01/12 12:41:32;;;;;;;4.03;0.80;;;;;;;;;;5050930;28;20152;-79
2021/01/12 12:43:58;;;;;;;5.45;1.13;;;;;;;;;;5053140;28;20056;-79
2021/01/12 12:46:24;;;;;;;3.45;0.77;;;;;;;;;;5051326;28;20103;-78
2021/01/12 12:48:50;;;;;;;7.05;0.90;;;;;;;;;;5052594;28;20104;-78
2021/01/12 12:51:16;;;;;;;4.80;0.95;;;;;;;;;;5051256;28;20047;-77
2021/01/12 12:53:45;;;;;;;4.13;0.85;;;;;;;;;;5051020;28;20071;-78
2021/01/12 12:56:13;;;;;;;8.07;1.20;;;;;;;;;;5051210;28;20020;-78
2021/01/12 12:58:39;;;;;;;5.32;0.90;;;;;;;;;;5050921;28;20013;-79
2021/01/12 13:01:05;;;;;;;5.95;0.95;;;;;;;;;;5051111;28;20021;-79
2021/01/12 13:03:31;;;;;;;8.40;1.25;;;;;;;;;;5050618;28;20021;-78
2021/01/12 13:06:04;;;;;;;6.55;1.08;;;;;;;;;;5051047;28;20019;-79
2021/01/12 13:08:31;;;;;;;3.50;0.75;;;;;;;;;;5050650;28;20056;-78
2021/01/12 13:10:57;;;;;;;3.33;0.70;;;;;;;;;;5052330;28;20021;-79
2021/01/12 13:13:23;;;;;;;4.82;0.90;;;;;;;;;;5050816;28;20028;-78
2021/01/12 13:15:50;;;;;;;9.80;1.92;;;;;;;;;;5052334;28;20016;-79
2021/01/12 13:18:20;;;;;;;4.35;0.88;;;;;;;;;;5051023;28;20135;-79
2021/01/12 13:20:46;;;;;;;8.23;1.77;;;;;;;;;;5052436;28;20461;-78
2021/01/12 13:23:13;;;;;;;7.13;1.13;;;;;;;;;;5050800;28;20063;-79
2021/01/12 13:25:39;;;;;;;6.45;0.95;;;;;;;;;;5050575;28;20384;-78
2021/01/12 13:28:06;;;;;;;4.72;1.17;;;;;;;;;;5052078;28;20024;-79
2021/01/12 13:30:32;;;;;;;6.45;1.10;;;;;;;;;;5053030;28;20078;-79
2021/01/12 13:32:58;;;;;;;5.40;0.88;;;;;;;;;;5054999;28;20017;-78
2021/01/12 13:35:24;;;;;;;9.40;1.25;;;;;;;;;;5054721;28;20086;-78
2021/01/12 13:37:51;;;;;;;6.22;0.90;;;;;;;;;;5054964;28;20484;-79
2021/01/12 13:40:17;;;;;;;7.30;1.00;;;;;;;;;;5054647;28;20112;-79
2021/01/12 13:42:47;;;;;;;7.70;1.08;;;;;;;;;;5054278;28;20049;-79
2021/01/12 13:45:14;;;;;;;5.05;0.90;;;;;;;;;;5054900;28;20100;-79
2021/01/12 13:47:40;;;;;;;8.27;1.23;;;;;;;;;;5055999;28;20025;-79
2021/01/12 13:50:06;;;;;;;8.27;0.90;;;;;;;;;;5054707;28;20021;-78
2021/01/12 13:52:33;;;;;;;9.80;1.05;;;;;;;;;;5054357;28;20098;-78
2021/01/12 13:55:00;;;;;;;9.43;1.17;;;;;;;;;;5054712;28;20025;-78
2021/01/12 13:57:28;;;;;;;4.40;1.25;;;;;;;;;;5054283;28;20044;-78
2021/01/12 13:59:55;;;;;;;8.77;2.03;;;;;;;;;;5056149;28;20507;-78
2021/01/12 14:02:21;;;;;;;7.07;1.23;;;;;;;;;;5054117;28;20019;-81
2021/01/12 14:04:47;;;;;;;5.68;1.15;;;;;;;;;;5056743;28;20028;-79
2021/01/12 14:07:14;;;;;;;4.90;1.00;;;;;;;;;;5055790;28;20020;-79
2021/01/12 14:09:40;;;;;;;5.43;0.70;;;;;;;;;;5055059;28;20032;-78
2021/01/12 14:12:06;;;;;;;4.15;0.90;;;;;;;;;;5055832;28;20021;-80
2021/01/12 14:14:33;;;;;;;7.32;1.38;;;;;;;;;;5055604;28;20141;-79
2021/01/12 14:17:02;;;;;;;9.32;1.20;;;;;;;;;;5056772;28;20377;-77
2021/01/12 14:19:28;;;;;;;4.47;0.80;;;;;;;;;;5054337;28;20013;-78
2021/01/12 14:21:55;;;;;;;6.72;1.23;;;;;;;;;;5055162;28;20017;-79
2021/01/12 14:24:21;;;;;;;5.25;0.98;;;;;;;;;;5056152;28;20070;-81
2021/01/12 14:26:52;;;;;;;6.55;1.00;;;;;;;;;;5055903;28;20365;-79
2021/01/12 14:29:18;;;;;;;8.82;1.50;;;;;;;;;;5055209;28;20013;-80
2021/01/12 14:31:44;;;;;;;6.65;1.35;;;;;;;;;;5054487;28;20526;-80
2021/01/12 14:34:11;;;;;;;6.28;1.00;;;;;;;;;;5056010;28;20111;-81
2021/01/12 14:36:37;;;;;;;8.75;1.42;;;;;;;;;;5056148;28;20028;-80